createdAt,value
2022-12-01T00:03:38.113Z,97788.66
2022-12-01T00:09:01.787Z,97799.22
2022-12-01T00:14:04.359Z,97793.06
2022-12-01T00:19:06.301Z,97788.44
2022-12-01T00:24:11.188Z,97794.19
2022-12-01T00:29:13.080Z,97794.63
2022-12-01T00:34:22.600Z,97789.88
2022-12-01T00:39:25.875Z,97793.06
2022-12-01T00:44:27.875Z,97796.81
2022-12-01T00:49:29.863Z,97804.50
2022-12-01T00:54:33.346Z,97793.97
2022-12-01T00:59:38.466Z,97788.97
2022-12-01T01:04:40.389Z,97782.72
2022-12-01T01:09:43.652Z,97776.53
2022-12-01T01:14:45.576Z,97769.03
2022-12-01T01:19:48.037Z,97765.72
2022-12-01T01:24:51.514Z,97762.53
2022-12-01T01:29:53.417Z,97755.34
2022-12-01T01:34:55.427Z,97744.63
2022-12-01T01:39:58.713Z,97753.25
2022-12-01T01:45:00.712Z,97740.34
2022-12-01T01:50:09.065Z,97740.41
2022-12-01T01:55:14.011Z,97737.00
2022-12-01T02:00:18.228Z,97738.34
2022-12-01T02:05:23.325Z,97731.59
2022-12-01T02:10:38.850Z,97730.03
2022-12-01T02:15:47.912Z,97722.09
2022-12-01T02:21:28.152Z,97735.38
2022-12-01T02:26:44.673Z,97728.81
2022-12-01T02:31:55.744Z,97726.50
2022-12-01T02:37:05.233Z,97722.16
2022-12-01T02:42:34.345Z,97725.63
2022-12-01T02:47:41.189Z,97728.34
2022-12-01T02:52:43.159Z,97721.38
2022-12-01T02:57:45.051Z,97720.31
2022-12-01T03:03:01.659Z,97721.94
2022-12-01T03:08:19.594Z,97716.19
2022-12-01T03:13:30.506Z,97711.00
2022-12-01T03:18:38.446Z,97710.16
2022-12-01T03:23:44.206Z,97691.56
2022-12-01T03:28:50.071Z,97691.78
2022-12-01T03:33:58.920Z,97696.13
2022-12-01T03:39:06.674Z,97688.47
2022-12-01T03:44:12.133Z,97683.13
2022-12-01T03:49:18.132Z,97681.72
2022-12-01T03:54:26.285Z,97678.66
2022-12-01T03:59:29.385Z,97669.50
2022-12-01T04:04:32.651Z,97670.63
2022-12-01T04:09:34.626Z,97684.78
2022-12-01T04:14:36.545Z,97680.53
2022-12-01T04:19:39.794Z,97684.47
2022-12-01T04:24:42.072Z,97675.72
2022-12-01T04:29:44.173Z,97686.34
2022-12-01T04:34:47.445Z,97683.34
2022-12-01T04:39:49.765Z,97683.22
2022-12-01T04:44:51.781Z,97687.91
2022-12-01T04:49:55.086Z,97686.41
2022-12-01T04:54:56.965Z,97687.84
2022-12-01T04:59:58.837Z,97685.03
2022-12-01T05:05:02.089Z,97686.72
2022-12-01T05:10:05.059Z,97677.03
2022-12-01T05:15:08.028Z,97692.19
2022-12-01T05:20:36.550Z,97692.09
2022-12-01T05:25:38.581Z,97702.22
2022-12-01T05:30:40.862Z,97694.06
2022-12-01T05:35:44.477Z,97689.47
2022-12-01T05:40:50.288Z,97692.16
2022-12-01T05:45:52.296Z,97698.28
2022-12-01T05:50:55.671Z,97691.38
2022-12-01T05:55:57.557Z,97697.81
2022-12-01T06:01:00.036Z,97691.31
2022-12-01T06:06:03.623Z,97704.72
2022-12-01T06:11:06.056Z,97707.16
2022-12-01T06:16:08.366Z,97705.63
2022-12-01T06:21:11.642Z,97699.78
2022-12-01T06:26:13.589Z,97702.13
2022-12-01T06:31:15.515Z,97698.31
2022-12-01T06:36:19.161Z,97722.38
2022-12-01T06:41:21.084Z,97715.47
2022-12-01T06:46:23.138Z,97708.84
2022-12-01T06:51:27.016Z,97713.50
2022-12-01T06:56:28.958Z,97709.69
2022-12-01T07:01:31.107Z,97703.13
2022-12-01T07:06:34.405Z,97709.78
2022-12-01T07:11:36.942Z,97719.03
2022-12-01T07:16:38.956Z,97708.19
2022-12-01T07:21:42.284Z,97718.31
2022-12-01T07:26:44.256Z,97726.13
2022-12-01T07:31:46.503Z,97724.59
2022-12-01T07:36:49.792Z,97730.00
2022-12-01T07:41:51.699Z,97729.25
2022-12-01T07:46:54.264Z,97733.91
2022-12-01T07:51:57.574Z,97730.13
2022-12-01T07:56:59.516Z,97734.84
2022-12-01T08:02:01.527Z,97742.25
2022-12-01T08:07:04.869Z,97752.38
2022-12-01T08:12:07.657Z,97745.44
2022-12-01T08:17:09.601Z,97742.31
2022-12-01T08:22:12.850Z,97752.91
2022-12-01T08:27:14.812Z,97749.81
2022-12-01T08:32:17.223Z,97747.44
2022-12-01T08:37:20.493Z,97748.19
2022-12-01T08:42:22.458Z,97753.69
2022-12-01T08:47:24.434Z,97754.84
2022-12-01T08:52:31.430Z,97756.44
2022-12-01T08:57:33.688Z,97764.91
2022-12-01T09:02:35.788Z,97761.47
2022-12-01T09:07:39.358Z,97753.72
2022-12-01T09:12:41.437Z,97749.81
2022-12-01T09:17:43.386Z,97745.97
2022-12-01T09:22:46.671Z,97746.78
2022-12-01T09:27:48.587Z,97735.13
2022-12-01T09:32:50.522Z,97733.56
2022-12-01T09:37:53.793Z,97729.69
2022-12-01T09:42:56.277Z,97721.16
2022-12-01T09:48:01.015Z,97712.22
2022-12-01T09:53:08.652Z,97707.94
2022-12-01T09:58:18.451Z,97714.13
2022-12-01T10:03:30.818Z,97704.03
2022-12-01T10:08:38.922Z,97697.38
2022-12-01T10:13:43.656Z,97699.34
2022-12-01T10:18:55.773Z,97691.09
2022-12-01T10:24:14.108Z,97690.63
2022-12-01T10:29:22.341Z,97691.44
2022-12-01T10:34:26.950Z,97691.41
2022-12-01T10:39:34.708Z,97684.41
2022-12-01T10:44:36.970Z,97687.56
2022-12-01T10:49:40.745Z,97681.31
2022-12-01T10:54:44.046Z,97676.53
2022-12-01T10:59:56.266Z,97675.81
2022-12-01T11:05:00.379Z,97677.00
2022-12-01T11:10:20.898Z,97673.50
2022-12-01T11:15:26.652Z,97682.84
2022-12-01T11:20:32.441Z,97680.50
2022-12-01T11:25:36.674Z,97680.09
2022-12-01T11:30:38.633Z,97667.25
2022-12-01T11:35:47.748Z,97676.19
2022-12-01T11:40:53.665Z,97673.56
2022-12-01T11:45:58.703Z,97673.47
2022-12-01T11:51:07.286Z,97675.06
2022-12-01T11:56:23.714Z,97676.22
2022-12-01T12:01:32.850Z,97684.84
2022-12-01T12:06:44.605Z,97677.47
2022-12-01T12:11:53.405Z,97681.41
2022-12-01T12:17:12.700Z,97676.69
2022-12-01T12:22:26.014Z,97682.47
2022-12-01T12:27:43.539Z,97680.59
2022-12-01T12:33:04.391Z,97681.03
2022-12-01T12:38:22.382Z,97675.19
2022-12-01T12:43:35.659Z,97677.16
2022-12-01T12:49:19.381Z,97677.13
2022-12-01T12:54:27.659Z,97667.41
2022-12-01T12:59:38.557Z,97683.78
2022-12-01T13:04:49.042Z,97681.81
2022-12-01T13:09:55.532Z,97676.34
2022-12-01T13:15:06.306Z,97681.44
2022-12-01T13:20:15.205Z,97677.50
2022-12-01T13:25:23.882Z,97679.88
2022-12-01T13:30:27.491Z,97674.81
2022-12-01T13:35:32.199Z,97678.69
2022-12-01T13:40:34.241Z,97683.78
2022-12-01T13:45:39.945Z,97678.38
2022-12-01T13:51:03.594Z,97678.75
2022-12-01T13:56:24.982Z,97677.59
2022-12-01T14:01:45.586Z,97685.75
2022-12-01T14:06:49.780Z,97675.22
2022-12-01T14:11:57.024Z,97674.13
2022-12-01T14:17:05.350Z,97671.38
2022-12-01T14:22:27.965Z,97674.50
2022-12-01T14:27:35.171Z,97689.28
2022-12-01T14:32:38.452Z,97684.63
2022-12-01T14:37:49.620Z,97676.84
2022-12-01T14:43:14.220Z,97682.69
2022-12-01T14:48:24.827Z,97687.34
2022-12-01T14:53:30.649Z,97683.84
2022-12-01T14:58:32.644Z,97683.03
2022-12-01T15:03:41.515Z,97692.75
2022-12-01T15:08:58.347Z,97693.91
2022-12-01T15:14:22.802Z,97683.84
2022-12-01T15:19:31.633Z,97687.72
2022-12-01T15:24:34.106Z,97685.00
2022-12-01T15:29:43.945Z,97688.09
2022-12-01T15:34:50.659Z,97684.16
2022-12-01T15:40:00.852Z,97678.34
2022-12-01T15:45:18.481Z,97682.63
2022-12-01T15:50:31.102Z,97677.19
2022-12-01T15:55:34.801Z,97675.28
2022-12-01T16:00:37.302Z,97687.66
2022-12-01T16:05:44.376Z,97677.59
2022-12-01T16:11:06.315Z,97676.06
2022-12-01T16:16:27.274Z,97678.38
2022-12-01T16:21:33.650Z,97679.88
2022-12-01T16:26:35.730Z,97682.19
2022-12-01T16:31:52.682Z,97673.31
2022-12-01T16:37:01.289Z,97677.94
2022-12-01T16:42:03.706Z,97682.22
2022-12-01T16:47:13.086Z,97672.56
2022-12-01T16:52:46.337Z,97681.50
2022-12-01T16:57:39.025Z,97676.44
2022-12-01T17:02:41.060Z,97681.06
2022-12-01T17:07:44.535Z,97683.75
2022-12-01T17:12:47.455Z,97688.81
2022-12-01T17:17:49.926Z,97675.28
2022-12-01T17:22:53.220Z,97687.66
2022-12-01T17:27:55.260Z,97686.47
2022-12-01T17:32:57.912Z,97679.50
2022-12-01T17:38:01.223Z,97689.97
2022-12-01T17:43:03.291Z,97688.41
2022-12-01T17:48:05.559Z,97683.78
2022-12-01T17:53:08.926Z,97686.84
2022-12-01T17:58:10.896Z,97688.41
2022-12-01T18:03:12.901Z,97679.13
2022-12-01T18:08:16.347Z,97683.00
2022-12-01T18:13:20.306Z,97679.50
2022-12-01T18:18:23.503Z,97678.72
2022-12-01T18:23:27.097Z,97674.03
2022-12-01T18:28:29.035Z,97675.22
2022-12-01T18:33:31.508Z,97669.41
2022-12-01T18:38:34.776Z,97669.06
2022-12-01T18:43:37.271Z,97676.06
2022-12-01T18:48:44.563Z,97669.84
2022-12-01T18:53:47.911Z,97668.28
2022-12-01T18:58:54.375Z,97663.19
2022-12-01T19:03:58.665Z,97660.13
2022-12-01T19:09:04.459Z,97658.97
2022-12-01T19:14:07.170Z,97657.34
2022-12-01T19:19:09.820Z,97654.66
2022-12-01T19:24:13.194Z,97657.41
2022-12-01T19:29:15.230Z,97648.09
2022-12-01T19:34:17.365Z,97658.56
2022-12-01T19:39:20.852Z,97657.78
2022-12-01T19:44:23.311Z,97656.63
2022-12-01T19:49:25.218Z,97648.88
2022-12-01T19:54:28.800Z,97657.41
2022-12-01T19:59:30.729Z,97652.75
2022-12-01T20:04:32.937Z,97658.97
2022-12-01T20:09:36.558Z,97652.75
2022-12-01T20:14:38.486Z,97652.38
2022-12-01T20:19:41.095Z,97649.25
2022-12-01T20:24:44.500Z,97654.31
2022-12-01T20:29:46.493Z,97649.63
2022-12-01T20:34:48.793Z,97645.38
2022-12-01T20:39:52.544Z,97647.69
2022-12-01T20:44:54.482Z,97647.31
2022-12-01T20:49:58.449Z,97653.13
2022-12-01T20:55:01.840Z,97652.75
2022-12-01T21:00:04.549Z,97647.31
2022-12-01T21:05:06.701Z,97645.78
2022-12-01T21:10:11.852Z,97651.97
2022-12-01T21:15:24.699Z,97651.19
2022-12-01T21:20:30.205Z,97646.91
2022-12-01T21:25:33.558Z,97651.19
2022-12-01T21:30:35.691Z,97653.53
2022-12-01T21:35:37.648Z,97648.06
2022-12-01T21:40:43.882Z,97651.97
2022-12-01T21:45:49.816Z,97647.31
2022-12-01T21:51:00.563Z,97653.53
2022-12-01T21:56:04.346Z,97650.03
2022-12-01T22:01:15.856Z,97641.50
2022-12-01T22:06:31.076Z,97646.50
2022-12-01T22:11:34.527Z,97644.19
2022-12-01T22:16:40.608Z,97644.19
2022-12-01T22:21:45.201Z,97634.88
2022-12-01T22:26:50.721Z,97628.66
2022-12-01T22:32:04.803Z,97618.94
2022-12-01T22:37:14.515Z,97629.78
2022-12-01T22:42:30.295Z,97634.06
2022-12-01T22:47:33.887Z,97630.16
2022-12-01T22:52:35.815Z,97632.53
2022-12-01T22:57:39.112Z,97623.19
2022-12-01T23:02:41.307Z,97620.84
2022-12-01T23:07:43.710Z,97610.75
2022-12-01T23:12:48.765Z,97614.25
2022-12-01T23:17:51.454Z,97592.13
2022-12-01T23:22:54.942Z,97590.59
2022-12-01T23:28:02.729Z,97596.03
2022-12-01T23:33:19.931Z,97600.69
2022-12-01T23:38:23.840Z,97600.69
2022-12-01T23:43:29.593Z,97590.97
2022-12-01T23:48:35.969Z,97599.13
2022-12-01T23:53:40.009Z,97600.63
2022-12-01T23:58:44.173Z,97588.22
